sensor_id;sensor_type;location;lat;lon;timestamp;P1;durP1;ratioP1;P2;durP2;ratioP2
2406;SDS011;37709;53.480;9.688;2023-09-30T00:01:49;12.80;;;4.80;;
2406;SDS011;37709;53.480;9.688;2023-09-30T00:04:18;11.67;;;3.87;;
2406;SDS011;37709;53.480;9.688;2023-09-30T00:06:47;13.60;;;4.60;;
2406;SDS011;37709;53.480;9.688;2023-09-30T00:09:14;16.93;;;4.60;;
2406;SDS011;37709;53.480;9.688;2023-09-30T00:11:42;12.20;;;3.97;;
2406;SDS011;37709;53.480;9.688;2023-09-30T00:14:10;10.97;;;4.00;;
2406;SDS011;37709;53.480;9.688;2023-09-30T00:16:37;7.17;;;3.83;;
2406;SDS011;37709;53.480;9.688;2023-09-30T00:19:05;11.10;;;3.80;;
2406;SDS011;37709;53.480;9.688;2023-09-30T00:21:33;13.23;;;4.90;;
2406;SDS011;37709;53.480;9.688;2023-09-30T00:24:01;12.10;;;4.13;;
2406;SDS011;37709;53.480;9.688;2023-09-30T00:26:28;15.07;;;4.67;;
2406;SDS011;37709;53.480;9.688;2023-09-30T00:28:56;7.53;;;4.17;;
2406;SDS011;37709;53.480;9.688;2023-09-30T00:31:25;11.37;;;3.87;;
2406;SDS011;37709;53.480;9.688;2023-09-30T00:33:53;11.03;;;4.53;;
2406;SDS011;37709;53.480;9.688;2023-09-30T00:36:21;9.10;;;4.30;;
2406;SDS011;37709;53.480;9.688;2023-09-30T00:38:49;9.33;;;3.60;;
2406;SDS011;37709;53.480;9.688;2023-09-30T00:41:18;17.33;;;4.60;;
2406;SDS011;37709;53.480;9.688;2023-09-30T00:43:46;10.80;;;3.90;;
2406;SDS011;37709;53.480;9.688;2023-09-30T00:46:19;9.83;;;4.00;;
2406;SDS011;37709;53.480;9.688;2023-09-30T00:48:49;9.27;;;4.00;;
2406;SDS011;37709;53.480;9.688;2023-09-30T00:51:17;8.03;;;3.60;;
2406;SDS011;37709;53.480;9.688;2023-09-30T00:53:45;9.90;;;3.73;;
2406;SDS011;37709;53.480;9.688;2023-09-30T00:56:13;11.60;;;4.30;;
2406;SDS011;37709;53.480;9.688;2023-09-30T00:58:42;15.00;;;4.70;;
2406;SDS011;37709;53.480;9.688;2023-09-30T01:01:11;18.50;;;5.60;;
2406;SDS011;37709;53.480;9.688;2023-09-30T01:03:38;12.10;;;4.60;;
2406;SDS011;37709;53.480;9.688;2023-09-30T01:06:07;10.90;;;4.13;;
2406;SDS011;37709;53.480;9.688;2023-09-30T01:08:35;13.30;;;4.70;;
2406;SDS011;37709;53.480;9.688;2023-09-30T01:11:06;11.67;;;3.97;;
2406;SDS011;37709;53.480;9.688;2023-09-30T01:13:34;15.73;;;4.03;;
2406;SDS011;37709;53.480;9.688;2023-09-30T01:16:06;11.47;;;3.90;;
2406;SDS011;37709;53.480;9.688;2023-09-30T01:18:36;10.90;;;4.03;;
2406;SDS011;37709;53.480;9.688;2023-09-30T01:21:06;17.43;;;4.97;;
2406;SDS011;37709;53.480;9.688;2023-09-30T01:23:34;14.87;;;3.93;;
2406;SDS011;37709;53.480;9.688;2023-09-30T01:28:55;8.97;;;3.90;;
2406;SDS011;37709;53.480;9.688;2023-09-30T01:31:23;17.27;;;4.40;;
2406;SDS011;37709;53.480;9.688;2023-09-30T01:33:50;10.30;;;4.60;;
2406;SDS011;37709;53.480;9.688;2023-09-30T01:36:24;11.20;;;4.70;;
2406;SDS011;37709;53.480;9.688;2023-09-30T01:38:52;12.00;;;4.87;;
2406;SDS011;37709;53.480;9.688;2023-09-30T01:41:21;12.43;;;4.37;;
2406;SDS011;37709;53.480;9.688;2023-09-30T01:43:49;14.33;;;5.07;;
2406;SDS011;37709;53.480;9.688;2023-09-30T01:46:17;18.10;;;5.33;;
2406;SDS011;37709;53.480;9.688;2023-09-30T01:48:45;11.90;;;4.63;;
2406;SDS011;37709;53.480;9.688;2023-09-30T01:51:12;18.20;;;4.83;;
2406;SDS011;37709;53.480;9.688;2023-09-30T01:53:41;16.87;;;5.20;;
2406;SDS011;37709;53.480;9.688;2023-09-30T01:56:09;11.80;;;4.60;;
2406;SDS011;37709;53.480;9.688;2023-09-30T01:58:37;15.83;;;4.33;;
2406;SDS011;37709;53.480;9.688;2023-09-30T02:01:06;11.10;;;4.83;;
2406;SDS011;37709;53.480;9.688;2023-09-30T02:03:36;19.50;;;4.70;;
2406;SDS011;37709;53.480;9.688;2023-09-30T02:06:04;11.50;;;4.50;;
2406;SDS011;37709;53.480;9.688;2023-09-30T02:08:32;10.90;;;4.70;;
2406;SDS011;37709;53.480;9.688;2023-09-30T02:11:03;11.53;;;4.73;;
2406;SDS011;37709;53.480;9.688;2023-09-30T02:13:35;19.53;;;5.10;;
2406;SDS011;37709;53.480;9.688;2023-09-30T02:16:03;9.17;;;4.47;;
2406;SDS011;37709;53.480;9.688;2023-09-30T02:18:31;15.30;;;4.90;;
2406;SDS011;37709;53.480;9.688;2023-09-30T02:20:59;9.23;;;4.40;;
2406;SDS011;37709;53.480;9.688;2023-09-30T02:23:27;17.13;;;5.07;;
2406;SDS011;37709;53.480;9.688;2023-09-30T02:25:56;15.37;;;4.90;;
2406;SDS011;37709;53.480;9.688;2023-09-30T02:28:24;12.97;;;4.83;;
2406;SDS011;37709;53.480;9.688;2023-09-30T02:30:52;14.20;;;4.73;;
2406;SDS011;37709;53.480;9.688;2023-09-30T02:33:20;17.00;;;5.80;;
2406;SDS011;37709;53.480;9.688;2023-09-30T02:35:47;12.00;;;5.20;;
2406;SDS011;37709;53.480;9.688;2023-09-30T02:38:17;9.57;;;5.07;;
2406;SDS011;37709;53.480;9.688;2023-09-30T02:40:47;13.57;;;5.20;;
2406;SDS011;37709;53.480;9.688;2023-09-30T02:43:18;10.80;;;5.00;;
2406;SDS011;37709;53.480;9.688;2023-09-30T02:45:48;14.53;;;5.67;;
2406;SDS011;37709;53.480;9.688;2023-09-30T02:48:17;16.90;;;4.80;;
2406;SDS011;37709;53.480;9.688;2023-09-30T02:50:45;16.03;;;5.40;;
2406;SDS011;37709;53.480;9.688;2023-09-30T02:53:13;19.07;;;5.87;;
2406;SDS011;37709;53.480;9.688;2023-09-30T02:55:42;8.83;;;4.60;;
2406;SDS011;37709;53.480;9.688;2023-09-30T02:58:10;10.90;;;4.73;;
2406;SDS011;37709;53.480;9.688;2023-09-30T03:00:37;15.43;;;5.13;;
2406;SDS011;37709;53.480;9.688;2023-09-30T03:03:05;13.70;;;5.30;;
2406;SDS011;37709;53.480;9.688;2023-09-30T03:05:33;14.50;;;4.83;;
2406;SDS011;37709;53.480;9.688;2023-09-30T03:08:04;19.57;;;5.90;;
2406;SDS011;37709;53.480;9.688;2023-09-30T03:10:33;13.83;;;4.83;;
2406;SDS011;37709;53.480;9.688;2023-09-30T03:13:00;10.50;;;5.30;;
2406;SDS011;37709;53.480;9.688;2023-09-30T03:15:28;17.10;;;4.47;;
2406;SDS011;37709;53.480;9.688;2023-09-30T03:17:59;10.50;;;4.60;;
2406;SDS011;37709;53.480;9.688;2023-09-30T03:20:27;13.00;;;5.27;;
2406;SDS011;37709;53.480;9.688;2023-09-30T03:22:56;17.37;;;5.37;;
2406;SDS011;37709;53.480;9.688;2023-09-30T03:25:23;14.00;;;5.20;;
2406;SDS011;37709;53.480;9.688;2023-09-30T03:27:51;19.73;;;5.30;;
2406;SDS011;37709;53.480;9.688;2023-09-30T03:30:19;16.13;;;5.27;;
2406;SDS011;37709;53.480;9.688;2023-09-30T03:32:47;19.30;;;6.50;;
2406;SDS011;37709;53.480;9.688;2023-09-30T03:35:16;15.67;;;6.47;;
2406;SDS011;37709;53.480;9.688;2023-09-30T03:37:45;15.60;;;6.40;;
2406;SDS011;37709;53.480;9.688;2023-09-30T03:40:13;15.37;;;5.77;;
2406;SDS011;37709;53.480;9.688;2023-09-30T03:42:46;13.33;;;5.70;;
2406;SDS011;37709;53.480;9.688;2023-09-30T03:45:17;15.60;;;6.93;;
2406;SDS011;37709;53.480;9.688;2023-09-30T03:47:46;12.10;;;5.77;;
2406;SDS011;37709;53.480;9.688;2023-09-30T03:50:15;13.40;;;5.47;;
2406;SDS011;37709;53.480;9.688;2023-09-30T03:52:43;17.23;;;6.20;;
2406;SDS011;37709;53.480;9.688;2023-09-30T03:55:14;22.23;;;6.60;;
2406;SDS011;37709;53.480;9.688;2023-09-30T03:57:44;13.53;;;5.70;;
2406;SDS011;37709;53.480;9.688;2023-09-30T04:00:15;13.30;;;6.23;;
2406;SDS011;37709;53.480;9.688;2023-09-30T04:02:50;17.63;;;7.20;;
2406;SDS011;37709;53.480;9.688;2023-09-30T04:05:26;16.40;;;5.70;;
2406;SDS011;37709;53.480;9.688;2023-09-30T04:08:01;16.97;;;6.17;;
2406;SDS011;37709;53.480;9.688;2023-09-30T04:10:29;18.90;;;5.80;;
2406;SDS011;37709;53.480;9.688;2023-09-30T04:12:57;12.37;;;5.93;;
2406;SDS011;37709;53.480;9.688;2023-09-30T04:15:25;20.90;;;6.10;;
2406;SDS011;37709;53.480;9.688;2023-09-30T04:17:54;16.83;;;5.30;;
2406;SDS011;37709;53.480;9.688;2023-09-30T04:20:21;10.13;;;5.27;;
2406;SDS011;37709;53.480;9.688;2023-09-30T04:22:51;12.50;;;4.87;;
2406;SDS011;37709;53.480;9.688;2023-09-30T04:25:24;15.80;;;6.40;;
2406;SDS011;37709;53.480;9.688;2023-09-30T04:27:53;14.73;;;5.57;;
2406;SDS011;37709;53.480;9.688;2023-09-30T04:30:21;13.53;;;6.03;;
2406;SDS011;37709;53.480;9.688;2023-09-30T04:32:50;13.73;;;5.70;;
2406;SDS011;37709;53.480;9.688;2023-09-30T04:35:17;11.93;;;5.17;;
2406;SDS011;37709;53.480;9.688;2023-09-30T04:37:45;13.23;;;5.87;;
2406;SDS011;37709;53.480;9.688;2023-09-30T04:40:13;18.63;;;6.33;;
2406;SDS011;37709;53.480;9.688;2023-09-30T04:42:47;13.80;;;6.60;;
2406;SDS011;37709;53.480;9.688;2023-09-30T04:45:15;11.20;;;6.00;;
2406;SDS011;37709;53.480;9.688;2023-09-30T04:47:43;12.37;;;5.50;;
2406;SDS011;37709;53.480;9.688;2023-09-30T04:50:11;13.27;;;5.50;;
2406;SDS011;37709;53.480;9.688;2023-09-30T04:52:43;17.63;;;6.20;;
2406;SDS011;37709;53.480;9.688;2023-09-30T04:55:12;11.80;;;5.40;;
2406;SDS011;37709;53.480;9.688;2023-09-30T04:57:42;9.97;;;5.00;;
2406;SDS011;37709;53.480;9.688;2023-09-30T05:00:15;16.57;;;6.60;;
2406;SDS011;37709;53.480;9.688;2023-09-30T05:02:48;12.60;;;6.00;;
2406;SDS011;37709;53.480;9.688;2023-09-30T05:05:17;13.70;;;4.93;;
2406;SDS011;37709;53.480;9.688;2023-09-30T05:07:46;25.93;;;6.60;;
2406;SDS011;37709;53.480;9.688;2023-09-30T05:10:14;18.07;;;5.40;;
2406;SDS011;37709;53.480;9.688;2023-09-30T05:12:43;13.97;;;5.20;;
2406;SDS011;37709;53.480;9.688;2023-09-30T05:15:16;15.40;;;4.80;;
2406;SDS011;37709;53.480;9.688;2023-09-30T05:17:45;18.73;;;6.10;;
2406;SDS011;37709;53.480;9.688;2023-09-30T05:20:15;16.07;;;6.80;;
2406;SDS011;37709;53.480;9.688;2023-09-30T05:22:46;17.47;;;6.00;;
2406;SDS011;37709;53.480;9.688;2023-09-30T05:25:15;13.97;;;5.10;;
2406;SDS011;37709;53.480;9.688;2023-09-30T05:27:45;10.23;;;5.33;;
2406;SDS011;37709;53.480;9.688;2023-09-30T05:30:17;15.03;;;5.70;;
2406;SDS011;37709;53.480;9.688;2023-09-30T05:32:46;15.70;;;5.80;;
2406;SDS011;37709;53.480;9.688;2023-09-30T05:35:14;18.00;;;6.23;;
2406;SDS011;37709;53.480;9.688;2023-09-30T05:37:44;17.70;;;6.27;;
2406;SDS011;37709;53.480;9.688;2023-09-30T05:40:13;20.13;;;5.50;;
2406;SDS011;37709;53.480;9.688;2023-09-30T05:42:54;14.70;;;5.33;;
2406;SDS011;37709;53.480;9.688;2023-09-30T05:45:23;17.30;;;5.77;;
2406;SDS011;37709;53.480;9.688;2023-09-30T05:47:53;19.20;;;6.93;;
2406;SDS011;37709;53.480;9.688;2023-09-30T05:50:23;15.73;;;5.60;;
2406;SDS011;37709;53.480;9.688;2023-09-30T05:52:52;19.37;;;5.80;;
2406;SDS011;37709;53.480;9.688;2023-09-30T05:55:26;13.90;;;6.07;;
2406;SDS011;37709;53.480;9.688;2023-09-30T05:57:56;16.07;;;6.00;;
2406;SDS011;37709;53.480;9.688;2023-09-30T06:00:26;14.60;;;5.50;;
2406;SDS011;37709;53.480;9.688;2023-09-30T06:02:59;14.30;;;5.77;;
2406;SDS011;37709;53.480;9.688;2023-09-30T06:05:27;16.80;;;5.40;;
2406;SDS011;37709;53.480;9.688;2023-09-30T06:08:00;17.60;;;6.17;;
2406;SDS011;37709;53.480;9.688;2023-09-30T06:10:31;16.87;;;6.10;;
2406;SDS011;37709;53.480;9.688;2023-09-30T06:12:59;13.80;;;5.77;;
2406;SDS011;37709;53.480;9.688;2023-09-30T06:15:27;15.93;;;5.67;;
2406;SDS011;37709;53.480;9.688;2023-09-30T06:17:56;18.57;;;5.40;;
2406;SDS011;37709;53.480;9.688;2023-09-30T06:20:26;13.03;;;5.37;;
2406;SDS011;37709;53.480;9.688;2023-09-30T06:22:59;19.77;;;6.13;;
2406;SDS011;37709;53.480;9.688;2023-09-30T06:25:30;20.33;;;5.47;;
2406;SDS011;37709;53.480;9.688;2023-09-30T06:28:00;24.70;;;6.20;;
2406;SDS011;37709;53.480;9.688;2023-09-30T06:30:28;18.20;;;5.40;;
2406;SDS011;37709;53.480;9.688;2023-09-30T06:33:01;13.00;;;5.63;;
2406;SDS011;37709;53.480;9.688;2023-09-30T06:35:33;15.17;;;5.93;;
2406;SDS011;37709;53.480;9.688;2023-09-30T06:38:05;11.63;;;5.10;;
2406;SDS011;37709;53.480;9.688;2023-09-30T06:40:36;13.00;;;5.30;;
2406;SDS011;37709;53.480;9.688;2023-09-30T06:43:07;11.40;;;5.40;;
2406;SDS011;37709;53.480;9.688;2023-09-30T06:45:35;13.87;;;6.17;;
2406;SDS011;37709;53.480;9.688;2023-09-30T06:48:09;11.30;;;5.27;;
2406;SDS011;37709;53.480;9.688;2023-09-30T06:50:43;10.10;;;4.43;;
2406;SDS011;37709;53.480;9.688;2023-09-30T06:53:12;12.27;;;4.30;;
2406;SDS011;37709;53.480;9.688;2023-09-30T06:55:40;12.50;;;4.50;;
2406;SDS011;37709;53.480;9.688;2023-09-30T06:58:08;8.90;;;4.60;;
2406;SDS011;37709;53.480;9.688;2023-09-30T07:00:40;9.07;;;4.20;;
2406;SDS011;37709;53.480;9.688;2023-09-30T07:03:08;7.80;;;3.90;;
2406;SDS011;37709;53.480;9.688;2023-09-30T07:05:36;12.50;;;4.30;;
2406;SDS011;37709;53.480;9.688;2023-09-30T07:08:04;8.43;;;4.00;;
2406;SDS011;37709;53.480;9.688;2023-09-30T07:10:34;8.63;;;3.50;;
2406;SDS011;37709;53.480;9.688;2023-09-30T07:13:03;10.33;;;3.33;;
2406;SDS011;37709;53.480;9.688;2023-09-30T07:15:33;8.40;;;3.60;;
2406;SDS011;37709;53.480;9.688;2023-09-30T07:18:01;4.43;;;3.53;;
2406;SDS011;37709;53.480;9.688;2023-09-30T07:20:29;7.97;;;3.27;;
2406;SDS011;37709;53.480;9.688;2023-09-30T07:23:00;7.87;;;2.83;;
2406;SDS011;37709;53.480;9.688;2023-09-30T07:25:45;6.20;;;2.70;;
2406;SDS011;37709;53.480;9.688;2023-09-30T07:28:14;9.87;;;3.50;;
2406;SDS011;37709;53.480;9.688;2023-09-30T07:30:43;6.47;;;2.90;;
2406;SDS011;37709;53.480;9.688;2023-09-30T07:33:12;7.40;;;3.90;;
2406;SDS011;37709;53.480;9.688;2023-09-30T07:35:40;7.87;;;2.90;;
2406;SDS011;37709;53.480;9.688;2023-09-30T07:38:08;8.37;;;3.37;;
2406;SDS011;37709;53.480;9.688;2023-09-30T07:40:36;6.70;;;2.80;;
2406;SDS011;37709;53.480;9.688;2023-09-30T07:43:04;6.60;;;2.63;;
2406;SDS011;37709;53.480;9.688;2023-09-30T07:45:33;7.27;;;2.87;;
2406;SDS011;37709;53.480;9.688;2023-09-30T07:48:00;9.17;;;3.27;;
2406;SDS011;37709;53.480;9.688;2023-09-30T07:50:32;6.17;;;3.37;;
2406;SDS011;37709;53.480;9.688;2023-09-30T07:53:00;8.93;;;3.03;;
2406;SDS011;37709;53.480;9.688;2023-09-30T07:55:28;4.53;;;2.60;;
2406;SDS011;37709;53.480;9.688;2023-09-30T07:57:56;7.17;;;2.53;;
2406;SDS011;37709;53.480;9.688;2023-09-30T08:00:26;4.73;;;2.73;;
2406;SDS011;37709;53.480;9.688;2023-09-30T08:02:55;7.10;;;3.57;;
2406;SDS011;37709;53.480;9.688;2023-09-30T08:05:23;7.00;;;2.57;;
2406;SDS011;37709;53.480;9.688;2023-09-30T08:07:50;8.37;;;2.60;;
2406;SDS011;37709;53.480;9.688;2023-09-30T08:10:18;6.30;;;3.80;;
2406;SDS011;37709;53.480;9.688;2023-09-30T08:12:46;7.50;;;2.83;;
2406;SDS011;37709;53.480;9.688;2023-09-30T08:15:17;5.67;;;2.97;;
2406;SDS011;37709;53.480;9.688;2023-09-30T08:17:45;7.43;;;2.53;;
2406;SDS011;37709;53.480;9.688;2023-09-30T08:20:14;8.87;;;3.23;;
2406;SDS011;37709;53.480;9.688;2023-09-30T08:22:42;7.57;;;2.70;;
2406;SDS011;37709;53.480;9.688;2023-09-30T08:25:10;5.63;;;2.40;;
2406;SDS011;37709;53.480;9.688;2023-09-30T08:27:37;7.83;;;2.50;;
2406;SDS011;37709;53.480;9.688;2023-09-30T08:30:09;6.27;;;2.50;;
2406;SDS011;37709;53.480;9.688;2023-09-30T08:32:37;6.60;;;3.13;;
2406;SDS011;37709;53.480;9.688;2023-09-30T08:35:05;9.87;;;2.47;;
2406;SDS011;37709;53.480;9.688;2023-09-30T08:37:34;6.70;;;3.07;;
2406;SDS011;37709;53.480;9.688;2023-09-30T08:40:02;7.17;;;2.70;;
2406;SDS011;37709;53.480;9.688;2023-09-30T08:42:34;6.70;;;2.37;;
2406;SDS011;37709;53.480;9.688;2023-09-30T08:45:06;7.87;;;3.20;;
2406;SDS011;37709;53.480;9.688;2023-09-30T08:47:36;8.77;;;3.30;;
2406;SDS011;37709;53.480;9.688;2023-09-30T08:50:04;5.87;;;2.10;;
2406;SDS011;37709;53.480;9.688;2023-09-30T08:52:34;6.50;;;2.20;;
2406;SDS011;37709;53.480;9.688;2023-09-30T08:55:06;5.07;;;2.37;;
2406;SDS011;37709;53.480;9.688;2023-09-30T08:57:36;5.40;;;2.37;;
2406;SDS011;37709;53.480;9.688;2023-09-30T09:00:09;6.07;;;2.77;;
2406;SDS011;37709;53.480;9.688;2023-09-30T09:02:39;9.40;;;3.70;;
2406;SDS011;37709;53.480;9.688;2023-09-30T09:05:07;5.13;;;2.60;;
2406;SDS011;37709;53.480;9.688;2023-09-30T09:07:36;8.57;;;2.50;;
2406;SDS011;37709;53.480;9.688;2023-09-30T09:12:33;7.03;;;3.00;;
2406;SDS011;37709;53.480;9.688;2023-09-30T09:15:02;7.57;;;2.73;;
2406;SDS011;37709;53.480;9.688;2023-09-30T09:17:43;8.60;;;2.27;;
2406;SDS011;37709;53.480;9.688;2023-09-30T09:20:16;6.93;;;2.20;;
2406;SDS011;37709;53.480;9.688;2023-09-30T09:22:48;4.60;;;1.90;;
2406;SDS011;37709;53.480;9.688;2023-09-30T09:25:17;5.57;;;2.03;;
2406;SDS011;37709;53.480;9.688;2023-09-30T09:27:45;5.80;;;2.30;;
2406;SDS011;37709;53.480;9.688;2023-09-30T09:30:21;3.80;;;1.87;;
2406;SDS011;37709;53.480;9.688;2023-09-30T09:32:59;7.33;;;2.33;;
2406;SDS011;37709;53.480;9.688;2023-09-30T09:35:28;6.17;;;2.30;;
2406;SDS011;37709;53.480;9.688;2023-09-30T09:38:01;7.27;;;2.90;;
2406;SDS011;37709;53.480;9.688;2023-09-30T09:40:34;4.60;;;2.17;;
2406;SDS011;37709;53.480;9.688;2023-09-30T09:43:02;6.90;;;2.20;;
2406;SDS011;37709;53.480;9.688;2023-09-30T09:45:32;4.77;;;2.63;;
2406;SDS011;37709;53.480;9.688;2023-09-30T09:48:00;6.90;;;2.40;;
2406;SDS011;37709;53.480;9.688;2023-09-30T09:50:28;4.17;;;2.20;;
2406;SDS011;37709;53.480;9.688;2023-09-30T09:52:58;6.13;;;2.17;;
2406;SDS011;37709;53.480;9.688;2023-09-30T09:55:27;6.30;;;2.27;;
2406;SDS011;37709;53.480;9.688;2023-09-30T09:57:54;7.13;;;2.30;;
2406;SDS011;37709;53.480;9.688;2023-09-30T10:00:24;4.90;;;2.20;;
2406;SDS011;37709;53.480;9.688;2023-09-30T10:02:53;6.20;;;2.00;;
2406;SDS011;37709;53.480;9.688;2023-09-30T10:05:21;4.33;;;1.93;;
2406;SDS011;37709;53.480;9.688;2023-09-30T10:10:20;7.23;;;2.20;;
2406;SDS011;37709;53.480;9.688;2023-09-30T10:12:50;5.03;;;2.00;;
2406;SDS011;37709;53.480;9.688;2023-09-30T10:20:27;6.83;;;2.87;;
2406;SDS011;37709;53.480;9.688;2023-09-30T10:23:17;5.73;;;2.30;;
2406;SDS011;37709;53.480;9.688;2023-09-30T10:25:46;5.87;;;1.90;;
2406;SDS011;37709;53.480;9.688;2023-09-30T10:36:35;5.47;;;2.10;;
2406;SDS011;37709;53.480;9.688;2023-09-30T10:39:05;7.33;;;2.40;;
2406;SDS011;37709;53.480;9.688;2023-09-30T10:46:53;4.87;;;1.90;;
2406;SDS011;37709;53.480;9.688;2023-09-30T10:51:55;4.67;;;2.00;;
2406;SDS011;37709;53.480;9.688;2023-09-30T10:54:23;4.37;;;2.10;;
2406;SDS011;37709;53.480;9.688;2023-09-30T10:56:52;5.67;;;2.17;;
2406;SDS011;37709;53.480;9.688;2023-09-30T10:59:21;7.30;;;2.13;;
2406;SDS011;37709;53.480;9.688;2023-09-30T11:01:51;4.77;;;1.60;;
2406;SDS011;37709;53.480;9.688;2023-09-30T11:04:20;7.00;;;1.83;;
2406;SDS011;37709;53.480;9.688;2023-09-30T11:06:48;4.70;;;1.63;;
2406;SDS011;37709;53.480;9.688;2023-09-30T11:09:20;4.30;;;1.63;;
2406;SDS011;37709;53.480;9.688;2023-09-30T11:11:51;5.00;;;1.67;;
2406;SDS011;37709;53.480;9.688;2023-09-30T11:16:59;6.80;;;2.30;;
2406;SDS011;37709;53.480;9.688;2023-09-30T11:19:35;5.20;;;1.93;;
2406;SDS011;37709;53.480;9.688;2023-09-30T11:22:04;4.70;;;1.60;;
2406;SDS011;37709;53.480;9.688;2023-09-30T11:24:36;3.93;;;1.50;;
2406;SDS011;37709;53.480;9.688;2023-09-30T11:27:04;3.83;;;1.63;;
2406;SDS011;37709;53.480;9.688;2023-09-30T11:29:33;4.10;;;1.73;;
2406;SDS011;37709;53.480;9.688;2023-09-30T11:32:01;6.27;;;1.97;;
2406;SDS011;37709;53.480;9.688;2023-09-30T11:34:35;5.23;;;1.33;;
2406;SDS011;37709;53.480;9.688;2023-09-30T11:37:04;3.30;;;1.50;;
2406;SDS011;37709;53.480;9.688;2023-09-30T11:39:32;3.73;;;1.63;;
2406;SDS011;37709;53.480;9.688;2023-09-30T11:42:00;5.30;;;2.00;;
2406;SDS011;37709;53.480;9.688;2023-09-30T11:44:30;5.00;;;1.67;;
2406;SDS011;37709;53.480;9.688;2023-09-30T11:47:02;5.50;;;1.67;;
2406;SDS011;37709;53.480;9.688;2023-09-30T11:49:36;4.23;;;1.53;;
2406;SDS011;37709;53.480;9.688;2023-09-30T11:52:07;5.87;;;2.27;;
2406;SDS011;37709;53.480;9.688;2023-09-30T11:54:36;5.67;;;1.63;;
2406;SDS011;37709;53.480;9.688;2023-09-30T11:57:07;4.10;;;1.53;;
2406;SDS011;37709;53.480;9.688;2023-09-30T11:59:39;4.27;;;1.10;;
2406;SDS011;37709;53.480;9.688;2023-09-30T12:02:09;3.43;;;1.70;;
2406;SDS011;37709;53.480;9.688;2023-09-30T12:04:44;3.60;;;1.30;;
2406;SDS011;37709;53.480;9.688;2023-09-30T12:07:15;4.37;;;1.57;;
2406;SDS011;37709;53.480;9.688;2023-09-30T12:09:43;5.13;;;1.43;;
2406;SDS011;37709;53.480;9.688;2023-09-30T12:12:10;3.33;;;1.33;;
2406;SDS011;37709;53.480;9.688;2023-09-30T12:14:41;4.87;;;1.43;;
2406;SDS011;37709;53.480;9.688;2023-09-30T12:17:09;6.87;;;1.70;;
2406;SDS011;37709;53.480;9.688;2023-09-30T12:19:39;5.53;;;1.63;;
2406;SDS011;37709;53.480;9.688;2023-09-30T12:22:08;2.77;;;1.40;;
2406;SDS011;37709;53.480;9.688;2023-09-30T12:24:37;9.67;;;2.27;;
2406;SDS011;37709;53.480;9.688;2023-09-30T12:27:06;4.73;;;1.80;;
2406;SDS011;37709;53.480;9.688;2023-09-30T12:29:34;5.23;;;1.40;;
2406;SDS011;37709;53.480;9.688;2023-09-30T12:32:01;3.33;;;1.47;;
2406;SDS011;37709;53.480;9.688;2023-09-30T12:34:30;2.33;;;1.10;;
2406;SDS011;37709;53.480;9.688;2023-09-30T12:37:00;3.00;;;1.60;;
2406;SDS011;37709;53.480;9.688;2023-09-30T12:39:28;5.30;;;1.40;;
2406;SDS011;37709;53.480;9.688;2023-09-30T12:41:59;3.20;;;1.10;;
2406;SDS011;37709;53.480;9.688;2023-09-30T12:44:28;4.00;;;1.60;;
2406;SDS011;37709;53.480;9.688;2023-09-30T12:46:55;3.67;;;1.40;;
2406;SDS011;37709;53.480;9.688;2023-09-30T12:49:23;2.33;;;1.00;;
2406;SDS011;37709;53.480;9.688;2023-09-30T12:51:51;3.47;;;1.50;;
2406;SDS011;37709;53.480;9.688;2023-09-30T12:54:18;3.77;;;1.50;;
2406;SDS011;37709;53.480;9.688;2023-09-30T12:56:47;4.13;;;1.20;;
2406;SDS011;37709;53.480;9.688;2023-09-30T12:59:15;3.27;;;1.60;;
2406;SDS011;37709;53.480;9.688;2023-09-30T13:01:43;4.10;;;1.50;;
2406;SDS011;37709;53.480;9.688;2023-09-30T13:04:12;4.40;;;1.50;;
2406;SDS011;37709;53.480;9.688;2023-09-30T13:06:41;5.13;;;1.40;;
2406;SDS011;37709;53.480;9.688;2023-09-30T13:09:08;3.70;;;1.10;;
2406;SDS011;37709;53.480;9.688;2023-09-30T13:11:37;3.73;;;1.50;;
2406;SDS011;37709;53.480;9.688;2023-09-30T13:14:05;3.27;;;1.20;;
2406;SDS011;37709;53.480;9.688;2023-09-30T13:16:33;4.07;;;1.70;;
2406;SDS011;37709;53.480;9.688;2023-09-30T13:19:02;3.43;;;1.10;;
2406;SDS011;37709;53.480;9.688;2023-09-30T13:21:30;4.10;;;1.57;;
2406;SDS011;37709;53.480;9.688;2023-09-30T13:23:58;4.50;;;1.30;;
2406;SDS011;37709;53.480;9.688;2023-09-30T13:26:25;7.17;;;1.40;;
2406;SDS011;37709;53.480;9.688;2023-09-30T13:28:55;4.13;;;1.57;;
2406;SDS011;37709;53.480;9.688;2023-09-30T13:31:24;4.63;;;1.70;;
2406;SDS011;37709;53.480;9.688;2023-09-30T13:33:52;4.03;;;1.33;;
2406;SDS011;37709;53.480;9.688;2023-09-30T13:36:20;3.80;;;1.47;;
2406;SDS011;37709;53.480;9.688;2023-09-30T13:38:48;5.13;;;1.20;;
2406;SDS011;37709;53.480;9.688;2023-09-30T13:41:16;2.67;;;1.40;;
2406;SDS011;37709;53.480;9.688;2023-09-30T13:43:44;3.40;;;1.40;;
2406;SDS011;37709;53.480;9.688;2023-09-30T13:46:12;5.03;;;1.40;;
2406;SDS011;37709;53.480;9.688;2023-09-30T13:48:40;5.73;;;1.57;;
2406;SDS011;37709;53.480;9.688;2023-09-30T13:51:08;3.80;;;1.37;;
2406;SDS011;37709;53.480;9.688;2023-09-30T13:53:36;3.13;;;1.20;;
2406;SDS011;37709;53.480;9.688;2023-09-30T13:56:09;5.13;;;1.57;;
2406;SDS011;37709;53.480;9.688;2023-09-30T13:58:37;4.90;;;1.40;;
2406;SDS011;37709;53.480;9.688;2023-09-30T14:01:04;2.90;;;1.47;;
2406;SDS011;37709;53.480;9.688;2023-09-30T14:03:34;4.97;;;1.70;;
2406;SDS011;37709;53.480;9.688;2023-09-30T14:06:02;4.20;;;1.37;;
2406;SDS011;37709;53.480;9.688;2023-09-30T14:08:29;3.03;;;1.07;;
2406;SDS011;37709;53.480;9.688;2023-09-30T14:10:57;4.30;;;1.30;;
2406;SDS011;37709;53.480;9.688;2023-09-30T14:13:26;3.97;;;1.03;;
2406;SDS011;37709;53.480;9.688;2023-09-30T14:15:54;5.43;;;1.70;;
2406;SDS011;37709;53.480;9.688;2023-09-30T14:18:23;3.83;;;1.20;;
2406;SDS011;37709;53.480;9.688;2023-09-30T14:20:51;5.47;;;1.30;;
2406;SDS011;37709;53.480;9.688;2023-09-30T14:23:19;2.80;;;1.00;;
2406;SDS011;37709;53.480;9.688;2023-09-30T14:25:47;3.43;;;1.57;;
2406;SDS011;37709;53.480;9.688;2023-09-30T14:28:15;3.70;;;1.47;;
2406;SDS011;37709;53.480;9.688;2023-09-30T14:30:44;3.77;;;1.13;;
2406;SDS011;37709;53.480;9.688;2023-09-30T14:33:12;3.53;;;1.20;;
2406;SDS011;37709;53.480;9.688;2023-09-30T14:35:41;7.80;;;1.50;;
2406;SDS011;37709;53.480;9.688;2023-09-30T14:38:10;5.50;;;1.90;;
2406;SDS011;37709;53.480;9.688;2023-09-30T14:40:38;2.83;;;1.03;;
2406;SDS011;37709;53.480;9.688;2023-09-30T14:43:07;5.03;;;1.33;;
2406;SDS011;37709;53.480;9.688;2023-09-30T14:45:37;3.37;;;1.23;;
2406;SDS011;37709;53.480;9.688;2023-09-30T14:48:06;2.90;;;1.20;;
2406;SDS011;37709;53.480;9.688;2023-09-30T14:50:35;5.40;;;1.50;;
2406;SDS011;37709;53.480;9.688;2023-09-30T14:53:08;4.60;;;1.37;;
2406;SDS011;37709;53.480;9.688;2023-09-30T14:55:36;2.90;;;1.57;;
2406;SDS011;37709;53.480;9.688;2023-09-30T14:58:04;2.93;;;1.20;;
2406;SDS011;37709;53.480;9.688;2023-09-30T15:00:37;4.30;;;1.33;;
2406;SDS011;37709;53.480;9.688;2023-09-30T15:03:07;3.77;;;1.33;;
2406;SDS011;37709;53.480;9.688;2023-09-30T15:05:35;3.10;;;1.20;;
2406;SDS011;37709;53.480;9.688;2023-09-30T15:08:03;4.60;;;1.57;;
2406;SDS011;37709;53.480;9.688;2023-09-30T15:10:34;3.33;;;1.10;;
2406;SDS011;37709;53.480;9.688;2023-09-30T15:13:02;3.20;;;1.40;;
2406;SDS011;37709;53.480;9.688;2023-09-30T15:15:35;4.47;;;1.30;;
2406;SDS011;37709;53.480;9.688;2023-09-30T15:18:03;4.00;;;1.43;;
2406;SDS011;37709;53.480;9.688;2023-09-30T15:20:37;5.43;;;1.57;;
2406;SDS011;37709;53.480;9.688;2023-09-30T15:23:04;5.53;;;1.20;;
2406;SDS011;37709;53.480;9.688;2023-09-30T15:25:33;3.83;;;1.43;;
2406;SDS011;37709;53.480;9.688;2023-09-30T15:28:01;4.60;;;1.13;;
2406;SDS011;37709;53.480;9.688;2023-09-30T15:30:29;3.27;;;1.40;;
2406;SDS011;37709;53.480;9.688;2023-09-30T15:32:58;3.80;;;1.70;;
2406;SDS011;37709;53.480;9.688;2023-09-30T15:35:26;2.80;;;1.43;;
2406;SDS011;37709;53.480;9.688;2023-09-30T15:37:54;4.40;;;1.73;;
2406;SDS011;37709;53.480;9.688;2023-09-30T15:40:22;3.73;;;1.20;;